»·PEaware :: N572JF KTAN-KLGA

N572JF :: KTAN-KLGA

FLIGHT INFORMATION

Flight Status: Arrived
Operator: Privately registered:
United States
More flights under this callsign
Pilot: Neil M. (13104)
Aircraft: PILATUS PC-12 EAGLE
(PC12)
More flights by this aircraft type
Origin: KTAN Taunton Mun
United States
Destination: KLGA La Guardia
United States
More flights between these airports :: More routes between these airports
Route: BAF NOBBI5
File this flight plan on PilotEdge
Remarks: PBN / D2 DOF / 180416 REG / N572JF EET / KZNY0100 PER / B RMK / TCAS SIMBRIEF
Altitude:
(Current/Filed)
16,000ft
Speed:
(Current/Filed)
270kts
Departed: 16-Apr-18 03:00 AM
Arrived: 16-Apr-18 03:55 AM
Distance/Time
Traveled:
145nm/0:55
Distance/Time
To Go:
Arrived

Flight Plot

Page will automatically refresh every two minutes.

Flight plan parsing failed; only flown route is shown


Map Options




Map Legend


Flown Route
Filed Route
Departure Airport
Arrival Airport
Navaid (VOR, NDB)
Fix

Horizontal Profiles

Position Reports

Time Latitude Longitude Heading Altitude Ground
Speed
16-Apr-18 02:48 41.874097 -71.016356 16 31ft 0kts
16-Apr-18 02:49 41.874097 -71.016356 16 31ft 0kts
16-Apr-18 02:50 41.874097 -71.016356 16 31ft 0kts
16-Apr-18 02:51 41.874097 -71.016356 16 31ft 0kts
16-Apr-18 02:52 41.874124 -71.016345 12 31ft 0kts
16-Apr-18 02:53 41.874441 -71.018299 289 31ft 0kts
16-Apr-18 02:54 41.874441 -71.018299 289 31ft 0kts
16-Apr-18 02:55 41.874441 -71.018299 289 31ft 0kts
16-Apr-18 02:56 41.874441 -71.018299 289 31ft 0kts
16-Apr-18 02:57 41.874441 -71.018299 289 31ft 0kts
16-Apr-18 02:58 41.874425 -71.019633 203 31ft 11kts
16-Apr-18 02:59 41.871211 -71.007426 105 141ft 105kts
16-Apr-18 03:00 41.882181 -70.985988 310 1202ft 152kts
16-Apr-18 03:01 41.883403 -71.016780 260 915ft 204kts
16-Apr-18 03:02 41.887162 -71.090591 281 2214ft 195kts
16-Apr-18 03:03 41.899311 -71.160609 283 3608ft 192kts
16-Apr-18 03:04 41.911589 -71.230395 283 5006ft 193kts
16-Apr-18 03:05 41.923848 -71.300516 283 6399ft 195kts
16-Apr-18 03:06 41.936192 -71.371368 283 7795ft 196kts
16-Apr-18 03:07 41.948574 -71.442768 283 8983ft 206kts
16-Apr-18 03:08 41.962783 -71.524836 283 9096ft 240kts
16-Apr-18 03:09 41.978281 -71.614452 283 9003ft 251kts
16-Apr-18 03:10 41.993475 -71.703578 282 8995ft 251kts
16-Apr-18 03:11 42.008843 -71.795280 282 8995ft 251kts
16-Apr-18 03:12 42.024278 -71.886570 282 8995ft 250kts
16-Apr-18 03:13 42.039662 -71.977904 282 8995ft 250kts
16-Apr-18 03:14 42.054994 -72.069380 282 8995ft 250kts
16-Apr-18 03:15 42.070226 -72.160743 282 8995ft 250kts
16-Apr-18 03:16 42.085399 -72.252228 282 8995ft 250kts
16-Apr-18 03:17 42.100475 -72.343617 282 8995ft 250kts
16-Apr-18 03:18 42.115422 -72.434685 282 8995ft 250kts
16-Apr-18 03:19 42.130365 -72.526223 282 8995ft 250kts
16-Apr-18 03:20 42.145291 -72.618148 282 8995ft 250kts
16-Apr-18 03:21 42.157686 -72.708814 265 9000ft 250kts
16-Apr-18 03:22 42.128077 -72.792756 239 8995ft 250kts
16-Apr-18 03:23 42.092621 -72.873509 239 8995ft 250kts
16-Apr-18 03:24 42.057307 -72.953744 239 8995ft 250kts
16-Apr-18 03:25 42.021708 -73.034461 239 8995ft 250kts
16-Apr-18 03:26 41.986186 -73.114788 239 8995ft 250kts
16-Apr-18 03:27 41.950579 -73.195089 239 8995ft 250kts
16-Apr-18 03:28 41.914842 -73.275467 239 8995ft 250kts
16-Apr-18 03:29 41.882074 -73.348984 239 8995ft 249kts
16-Apr-18 03:30 41.847103 -73.427222 239 8995ft 249kts
16-Apr-18 03:31 41.811517 -73.506637 239 8995ft 249kts
16-Apr-18 03:32 41.775647 -73.585935 234 8996ft 249kts
16-Apr-18 03:33 41.716406 -73.631734 204 8995ft 249kts
16-Apr-18 03:34 41.653695 -73.668854 203 8995ft 249kts
16-Apr-18 03:35 41.589214 -73.699479 178 9001ft 248kts
16-Apr-18 03:36 41.522479 -73.675986 163 8995ft 249kts
16-Apr-18 03:37 41.456290 -73.649822 163 8995ft 249kts
16-Apr-18 03:38 41.389861 -73.623712 163 8995ft 249kts
16-Apr-18 03:39 41.323457 -73.597634 163 8995ft 249kts
16-Apr-18 03:40 41.258210 -73.568064 156 8996ft 249kts
16-Apr-18 03:41 41.193164 -73.539792 183 8993ft 249kts
16-Apr-18 03:42 41.131873 -73.579806 211 8995ft 249kts
16-Apr-18 03:43 41.070983 -73.625973 192 8366ft 267kts
16-Apr-18 03:44 40.999797 -73.637018 185 7566ft 249kts
16-Apr-18 03:45 40.932130 -73.646799 185 6591ft 242kts
16-Apr-18 03:46 40.867111 -73.656192 185 5509ft 238kts
16-Apr-18 03:47 40.803234 -73.665503 185 4392ft 224kts
16-Apr-18 03:48 40.743784 -73.674193 185 3038ft 204kts
16-Apr-18 03:49 40.707429 -73.718221 247 2023ft 175kts
16-Apr-18 03:50 40.721961 -73.761553 317 1698ft 125kts
16-Apr-18 03:51 40.741523 -73.797499 301 1691ft 114kts
16-Apr-18 03:52 40.757733 -73.827771 301 1003ft 99kts
16-Apr-18 03:53 40.771885 -73.856883 303 75ft 84kts
16-Apr-18 03:54 40.779682 -73.873493 270 25ft 8kts
16-Apr-18 03:55 40.776832 -73.877080 254 25ft 24kts
16-Apr-18 03:56 40.776214 -73.881406 270 25ft 12kts
16-Apr-18 03:57 40.777020 -73.883016 47 25ft 3kts
16-Apr-18 03:58 40.777131 -73.882402 81 25ft 0kts
16-Apr-18 03:59 40.777131 -73.882402 81 25ft 0kts
16-Apr-18 04:00 40.777132 -73.882402 81 25ft 0kts

Navigation Log

Ident Type
Flight plan parsing failed, navigation log unavailable